Time;durP1;ratioP1;P1;durP2;ratioP2;P2;SDS_P1;SDS_P2;PMS_P1;PMS_P2;Temp;Humidity;BMP_temperature;BMP_pressure;BME280_temperature;BME280_humidity;BME280_pressure;Samples;Min_cycle;Max_cycle;Signal;HPM_P1;HPM_P2
2022/03/22 00:00:46;;;;;;;;;;;;;;;;;;2097511;28;20039;-45
2022/03/22 00:01:51;;;;;;;;;;;;;;;;;;2097490;28;19925;-45
2022/03/22 00:02:52;;;;;;;;;;;;;;;;;;2097810;28;19931;-45
2022/03/22 00:03:53;;;;;;;;;;;;;;;;;;2097827;28;19928;-48
2022/03/22 00:04:55;;;;;;;;;;;;;;;;;;2097858;28;20376;-48
2022/03/22 00:05:56;;;;;;;;;;;;;;;;;;2097255;28;20020;-48
2022/03/22 00:06:57;;;;;;;;;;;;;;;;;;2097670;28;20008;-48
2022/03/22 00:08:00;;;;;;;;;;;;;;;;;;2097629;28;20023;-48
2022/03/22 00:09:02;;;;;;;;;;;;;;;;;;2097433;28;19968;-47
2022/03/22 00:10:03;;;;;;;;;;;;;;;;;;2097511;28;19963;-48
2022/03/22 00:11:04;;;;;;;;;;;;;;;;;;2097314;28;19932;-49
2022/03/22 00:12:05;;;;;;;;;;;;;;;;;;2097486;28;20297;-49
2022/03/22 00:13:07;;;;;;;;;;;;;;;;;;2097466;28;19925;-49
2022/03/22 00:14:09;;;;;;;;;;;;;;;;;;2097742;28;20014;-49
2022/03/22 00:15:10;;;;;;;;;;;;;;;;;;2105904;28;20015;-48
2022/03/22 00:16:32;;;;;;;;;;;;;;;;;;2105565;28;19951;-48
2022/03/22 00:17:53;;;;;;;;;;;;;;;;;;2105678;28;19931;-48
2022/03/22 00:18:54;;;;;;;;;;;;;;;;;;2105977;28;19924;-45
2022/03/22 00:19:55;;;;;;;;;;;;;;;;;;2106043;28;19960;-44
2022/03/22 00:20:56;;;;;;;;;;;;;;;;;;2106067;28;19919;-44
2022/03/22 00:21:58;;;;;;;;;;;;;;;;;;2105662;28;19931;-45
2022/03/22 00:22:59;;;;;;;;;;;;;;;;;;2105939;28;19924;-44
2022/03/22 00:24:01;;;;;;;;;;;;;;;;;;2105774;28;20352;-44
2022/03/22 00:25:02;;;;;;;;;;;;;;;;;;2093348;28;20019;-45
2022/03/22 00:26:03;;;;;;;;;;;;;;;;;;2090064;28;19925;-45
2022/03/22 00:27:04;;;;;;;;;;;;;;;;;;2094371;28;19933;-45
2022/03/22 00:28:06;;;;;;;;;;;;;;;;;;2094539;28;20439;-45
2022/03/22 00:29:07;;;;;;;;;;;;;;;;;;2091372;28;20046;-48
2022/03/22 00:30:08;;;;;;;;;;;;;;;;;;2090927;28;19924;-48
2022/03/22 00:31:09;;;;;;;;;;;;;;;;;;2091233;28;20474;-49
2022/03/22 00:32:10;;;;;;;;;;;;;;;;;;2091252;28;19925;-49
2022/03/22 00:33:12;;;;;;;;;;;;;;;;;;2093096;28;20393;-49
2022/03/22 00:34:13;;;;;;;;;;;;;;;;;;2091209;28;20003;-48
2022/03/22 00:35:17;;;;;;;;;;;;;;;;;;2094512;28;19966;-48
2022/03/22 00:36:18;;;;;;;;;;;;;;;;;;2091104;28;20016;-48
2022/03/22 00:37:20;;;;;;;;;;;;;;;;;;2090438;28;19925;-48
2022/03/22 00:38:21;;;;;;;;;;;;;;;;;;2094871;28;19968;-48
2022/03/22 00:39:22;;;;;;;;;;;;;;;;;;2098114;28;19924;-48
2022/03/22 00:40:24;;;;;;;;;;;;;;;;;;2096078;28;19978;-51
2022/03/22 00:41:25;;;;;;;;;;;;;;;;;;2092387;28;19999;-48
2022/03/22 00:42:26;;;;;;;;;;;;;;;;;;2095107;28;19992;-48
2022/03/22 00:43:28;;;;;;;;;;;;;;;;;;2098025;28;20733;-47
2022/03/22 00:44:29;;;;;;;;;;;;;;;;;;2097652;28;20278;-48
2022/03/22 00:45:31;;;;;;;;;;;;;;;;;;2090490;28;20012;-48
2022/03/22 00:46:32;;;;;;;;;;;;;;;;;;2092468;28;19951;-47
2022/03/22 00:47:34;;;;;;;;;;;;;;;;;;2092471;28;19931;-44
2022/03/22 00:48:35;;;;;;;;;;;;;;;;;;2091655;28;19955;-44
2022/03/22 00:49:36;;;;;;;;;;;;;;;;;;2095362;28;20089;-45
2022/03/22 00:50:37;;;;;;;;;;;;;;;;;;2090757;28;20027;-44
2022/03/22 00:51:38;;;;;;;;;;;;;;;;;;2096755;28;20003;-44
2022/03/22 00:52:39;;;;;;;;;;;;;;;;;;2098667;28;19959;-45
2022/03/22 00:53:41;;;;;;;;;;;;;;;;;;2098028;28;19924;-44
2022/03/22 00:54:42;;;;;;;;;;;;;;;;;;2098458;28;19978;-45
2022/03/22 00:55:43;;;;;;;;;;;;;;;;;;2096968;28;20308;-45
2022/03/22 00:56:45;;;;;;;;;;;;;;;;;;2097928;28;19951;-44
2022/03/22 00:57:46;;;;;;;;;;;;;;;;;;2098128;28;19925;-44
2022/03/22 01:00:01;;;;;;;;;;;;;;;;;;2097001;28;20016;-44
2022/03/22 01:00:08;;;;;;;;;;;;;;;;;;2094782;28;20003;-44
2022/03/22 01:01:09;;;;;;;;;;;;;;;;;;2095390;28;19924;-45
2022/03/22 01:02:10;;;;;;;;;;;;;;;;;;2094964;28;19931;-44
2022/03/22 01:03:12;;;;;;;;;;;;;;;;;;2098328;28;20495;-45
2022/03/22 01:04:13;;;;;;;;;;;;;;;;;;2098485;28;20062;-47
2022/03/22 01:05:16;;;;;;;;;;;;;;;;;;2097918;28;20011;-49
2022/03/22 01:06:17;;;;;;;;;;;;;;;;;;2096627;28;19959;-48
2022/03/22 01:07:18;;;;;;;;;;;;;;;;;;2096977;28;19988;-48
2022/03/22 01:08:19;;;;;;;;;;;;;;;;;;2097892;28;20015;-47
2022/03/22 01:09:21;;;;;;;;;;;;;;;;;;2094884;28;20018;-48
2022/03/22 01:10:22;;;;;;;;;;;;;;;;;;2094381;28;20069;-48
2022/03/22 01:11:23;;;;;;;;;;;;;;;;;;2097315;28;19963;-49
2022/03/22 01:12:24;;;;;;;;;;;;;;;;;;2097935;28;19924;-47
2022/03/22 01:13:27;;;;;;;;;;;;;;;;;;2097619;28;20362;-48
2022/03/22 01:14:28;;;;;;;;;;;;;;;;;;2096617;28;19924;-48
2022/03/22 01:15:32;;;;;;;;;;;;;;;;;;2098016;28;19931;-48
2022/03/22 01:16:33;;;;;;;;;;;;;;;;;;2098550;28;20410;-44
2022/03/22 01:17:34;;;;;;;;;;;;;;;;;;2098451;28;19932;-44
2022/03/22 01:18:36;;;;;;;;;;;;;;;;;;2098605;28;19925;-45
2022/03/22 01:19:38;;;;;;;;;;;;;;;;;;2098539;28;20337;-45
2022/03/22 01:20:39;;;;;;;;;;;;;;;;;;2098190;28;20011;-44
2022/03/22 01:21:40;;;;;;;;;;;;;;;;;;2098492;28;19924;-44
2022/03/22 01:22:42;;;;;;;;;;;;;;;;;;2097996;28;20423;-44
2022/03/22 01:23:43;;;;;;;;;;;;;;;;;;2098224;28;19924;-45
2022/03/22 01:24:44;;;;;;;;;;;;;;;;;;2094392;28;19925;-44
2022/03/22 01:25:45;;;;;;;;;;;;;;;;;;2094012;28;20019;-45
2022/03/22 01:26:46;;;;;;;;;;;;;;;;;;2092449;28;20054;-45
2022/03/22 01:27:47;;;;;;;;;;;;;;;;;;2093783;28;20007;-44
2022/03/22 01:28:49;;;;;;;;;;;;;;;;;;2092400;28;19924;-45
2022/03/22 01:29:50;;;;;;;;;;;;;;;;;;2096186;28;19931;-45
2022/03/22 01:30:51;;;;;;;;;;;;;;;;;;2098138;28;19929;-44
2022/03/22 01:31:52;;;;;;;;;;;;;;;;;;2096608;28;19966;-44
2022/03/22 01:32:53;;;;;;;;;;;;;;;;;;2097376;28;19924;-44
2022/03/22 01:33:56;;;;;;;;;;;;;;;;;;2098310;28;19970;-44
2022/03/22 01:34:57;;;;;;;;;;;;;;;;;;2097191;28;20407;-45
2022/03/22 01:35:58;;;;;;;;;;;;;;;;;;2097146;28;19983;-44
2022/03/22 01:36:59;;;;;;;;;;;;;;;;;;2098640;28;20233;-44
2022/03/22 01:38:00;;;;;;;;;;;;;;;;;;2097861;28;20019;-44
2022/03/22 01:39:02;;;;;;;;;;;;;;;;;;2094926;28;19929;-44
2022/03/22 01:40:03;;;;;;;;;;;;;;;;;;2097258;28;19924;-45
2022/03/22 01:41:04;;;;;;;;;;;;;;;;;;2096090;28;19932;-45
2022/03/22 01:42:05;;;;;;;;;;;;;;;;;;2091586;28;19925;-44
2022/03/22 01:43:06;;;;;;;;;;;;;;;;;;2091352;28;20046;-44
2022/03/22 01:44:07;;;;;;;;;;;;;;;;;;2091617;28;19995;-44
2022/03/22 01:45:09;;;;;;;;;;;;;;;;;;2096581;28;20011;-44
2022/03/22 01:46:13;;;;;;;;;;;;;;;;;;2089853;28;19928;-44
2022/03/22 01:47:14;;;;;;;;;;;;;;;;;;2096998;28;19978;-44
2022/03/22 01:48:15;;;;;;;;;;;;;;;;;;2098041;28;20003;-44
2022/03/22 01:49:16;;;;;;;;;;;;;;;;;;2090011;28;19925;-44
2022/03/22 01:50:17;;;;;;;;;;;;;;;;;;2090281;28;19947;-44
2022/03/22 01:51:20;;;;;;;;;;;;;;;;;;2096806;28;19928;-48
2022/03/22 01:52:21;;;;;;;;;;;;;;;;;;2097974;28;20007;-48
2022/03/22 01:53:23;;;;;;;;;;;;;;;;;;2097953;28;19986;-48
2022/03/22 01:54:24;;;;;;;;;;;;;;;;;;2097902;28;19989;-48
2022/03/22 01:55:25;;;;;;;;;;;;;;;;;;2096627;28;20019;-48
2022/03/22 01:56:26;;;;;;;;;;;;;;;;;;2097582;28;19978;-51
2022/03/22 01:57:30;;;;;;;;;;;;;;;;;;2097302;28;20402;-44
2022/03/22 01:58:31;;;;;;;;;;;;;;;;;;2097675;28;19925;-44
2022/03/22 01:59:32;;;;;;;;;;;;;;;;;;2089962;28;20003;-44
2022/03/22 02:00:33;;;;;;;;;;;;;;;;;;2091099;28;20062;-44
2022/03/22 02:05:51;;;;;;;;;;;;;;;;;;2097584;28;19925;-47
2022/03/22 02:06:53;;;;;;;;;;;;;;;;;;2097845;28;19979;-51
2022/03/22 02:07:54;;;;;;;;;;;;;;;;;;2098119;28;19932;-45
2022/03/22 02:08:55;;;;;;;;;;;;;;;;;;2097899;28;20011;-45
2022/03/22 02:09:56;;;;;;;;;;;;;;;;;;2098107;28;20007;-44
2022/03/22 02:10:59;;;;;;;;;;;;;;;;;;2096616;28;20058;-45
2022/03/22 02:12:00;;;;;;;;;;;;;;;;;;2096494;28;19924;-44
2022/03/22 02:13:01;;;;;;;;;;;;;;;;;;2095395;28;20287;-48
2022/03/22 02:14:02;;;;;;;;;;;;;;;;;;2097848;28;20015;-48
2022/03/22 02:15:03;;;;;;;;;;;;;;;;;;2097779;28;19924;-49
2022/03/22 02:16:04;;;;;;;;;;;;;;;;;;2097806;28;20098;-48
2022/03/22 02:17:06;;;;;;;;;;;;;;;;;;2091862;28;19925;-48
2022/03/22 02:18:07;;;;;;;;;;;;;;;;;;2091758;28;19991;-48
2022/03/22 02:19:09;;;;;;;;;;;;;;;;;;2097954;28;19962;-49
2022/03/22 02:20:10;;;;;;;;;;;;;;;;;;2095458;28;20402;-48
2022/03/22 02:21:12;;;;;;;;;;;;;;;;;;2089889;28;19978;-49
2022/03/22 02:22:13;;;;;;;;;;;;;;;;;;2089729;28;20019;-48
2022/03/22 02:23:15;;;;;;;;;;;;;;;;;;2089900;28;20003;-48
2022/03/22 02:24:16;;;;;;;;;;;;;;;;;;2098247;28;20043;-48
2022/03/22 02:25:17;;;;;;;;;;;;;;;;;;2092342;28;20419;-48
2022/03/22 02:26:18;;;;;;;;;;;;;;;;;;2090156;28;20004;-49
2022/03/22 02:27:20;;;;;;;;;;;;;;;;;;2089749;28;19946;-48
2022/03/22 02:28:21;;;;;;;;;;;;;;;;;;2089705;28;20066;-48
2022/03/22 02:29:25;;;;;;;;;;;;;;;;;;2089906;28;19925;-47
2022/03/22 02:30:26;;;;;;;;;;;;;;;;;;2096614;28;20051;-47
2022/03/22 02:31:28;;;;;;;;;;;;;;;;;;2095421;28;20148;-50
2022/03/22 02:32:28;;;;;;;;;;;;;;;;;;2097894;28;19930;-48
2022/03/22 02:33:30;;;;;;;;;;;;;;;;;;2091063;28;20016;-48
2022/03/22 02:34:31;;;;;;;;;;;;;;;;;;2089709;28;19931;-48
2022/03/22 02:35:34;;;;;;;;;;;;;;;;;;2091103;28;19955;-44
2022/03/22 02:36:35;;;;;;;;;;;;;;;;;;2089756;28;19956;-48
2022/03/22 02:37:37;;;;;;;;;;;;;;;;;;2089649;28;19925;-47
2022/03/22 02:38:38;;;;;;;;;;;;;;;;;;2089869;28;20007;-47
2022/03/22 02:39:39;;;;;;;;;;;;;;;;;;2095270;28;19924;-50
2022/03/22 02:40:40;;;;;;;;;;;;;;;;;;2097589;28;19971;-48
2022/03/22 02:41:42;;;;;;;;;;;;;;;;;;2093052;28;19952;-48
2022/03/22 02:42:44;;;;;;;;;;;;;;;;;;2089629;28;20480;-48
2022/03/22 02:43:45;;;;;;;;;;;;;;;;;;2089595;28;20012;-47
2022/03/22 02:44:46;;;;;;;;;;;;;;;;;;2092100;28;19928;-48
2022/03/22 02:45:47;;;;;;;;;;;;;;;;;;2095970;28;20388;-48
2022/03/22 02:46:49;;;;;;;;;;;;;;;;;;2093880;28;19925;-48
2022/03/22 02:47:50;;;;;;;;;;;;;;;;;;2093609;28;20396;-48
2022/03/22 02:48:51;;;;;;;;;;;;;;;;;;2089520;28;20213;-50
2022/03/22 02:49:52;;;;;;;;;;;;;;;;;;2096251;28;19932;-48
2022/03/22 02:50:54;;;;;;;;;;;;;;;;;;2097350;28;19924;-48
2022/03/22 02:51:55;;;;;;;;;;;;;;;;;;2090462;28;20355;-47
2022/03/22 02:52:56;;;;;;;;;;;;;;;;;;2097075;28;19931;-48
2022/03/22 02:53:57;;;;;;;;;;;;;;;;;;2094351;28;19932;-48
2022/03/22 02:54:59;;;;;;;;;;;;;;;;;;2093974;28;19998;-48
2022/03/22 02:56:01;;;;;;;;;;;;;;;;;;2097680;28;20015;-48
2022/03/22 02:57:02;;;;;;;;;;;;;;;;;;2097867;28;19935;-48
2022/03/22 02:58:03;;;;;;;;;;;;;;;;;;2096007;28;19928;-49
2022/03/22 02:59:05;;;;;;;;;;;;;;;;;;2092998;28;19960;-47
2022/03/22 03:00:06;;;;;;;;;;;;;;;;;;2096719;28;20007;-48
2022/03/22 03:01:07;;;;;;;;;;;;;;;;;;2093753;28;20047;-48
2022/03/22 03:02:08;;;;;;;;;;;;;;;;;;2097076;28;19924;-48
2022/03/22 03:03:10;;;;;;;;;;;;;;;;;;2095863;28;19932;-49
2022/03/22 03:04:11;;;;;;;;;;;;;;;;;;2094061;28;19925;-48
2022/03/22 03:05:12;;;;;;;;;;;;;;;;;;2093380;28;19928;-49
2022/03/22 03:06:13;;;;;;;;;;;;;;;;;;2097056;28;20389;-47
2022/03/22 03:07:14;;;;;;;;;;;;;;;;;;2089588;28;20011;-48
2022/03/22 03:08:15;;;;;;;;;;;;;;;;;;2089430;28;20011;-50
2022/03/22 03:09:17;;;;;;;;;;;;;;;;;;2090998;28;20421;-48
2022/03/22 03:10:18;;;;;;;;;;;;;;;;;;2097262;28;19932;-48
2022/03/22 03:11:20;;;;;;;;;;;;;;;;;;2095106;28;19960;-48
2022/03/22 03:12:21;;;;;;;;;;;;;;;;;;2089671;28;20445;-44
2022/03/22 03:13:22;;;;;;;;;;;;;;;;;;2089579;28;19987;-44
2022/03/22 03:14:38;;;;;;;;;;;;;;;;;;2089514;28;20016;-44
2022/03/22 03:15:39;;;;;;;;;;;;;;;;;;2089679;28;20019;-49
2022/03/22 03:16:41;;;;;;;;;;;;;;;;;;2089656;28;20012;-47
2022/03/22 03:17:42;;;;;;;;;;;;;;;;;;2089618;28;20313;-44
2022/03/22 03:18:43;;;;;;;;;;;;;;;;;;2089665;28;19932;-45
2022/03/22 03:19:44;;;;;;;;;;;;;;;;;;2094658;28;19964;-45
2022/03/22 03:20:45;;;;;;;;;;;;;;;;;;2097386;28;19932;-44
2022/03/22 03:21:46;;;;;;;;;;;;;;;;;;2092908;28;19936;-44
2022/03/22 03:22:48;;;;;;;;;;;;;;;;;;2091733;28;20015;-47
2022/03/22 03:23:49;;;;;;;;;;;;;;;;;;2097197;28;20059;-48
2022/03/22 03:24:50;;;;;;;;;;;;;;;;;;2097414;28;20023;-48
2022/03/22 03:25:52;;;;;;;;;;;;;;;;;;2095640;28;19968;-47
2022/03/22 03:26:53;;;;;;;;;;;;;;;;;;2096173;28;20015;-48
2022/03/22 03:27:54;;;;;;;;;;;;;;;;;;2089346;28;20294;-48
2022/03/22 03:28:55;;;;;;;;;;;;;;;;;;2089722;28;19925;-48
2022/03/22 03:29:56;;;;;;;;;;;;;;;;;;2097892;28;19948;-48
2022/03/22 03:30:57;;;;;;;;;;;;;;;;;;2095116;28;19978;-45
2022/03/22 03:31:58;;;;;;;;;;;;;;;;;;2091239;28;19925;-44
2022/03/22 03:33:00;;;;;;;;;;;;;;;;;;2094598;28;20014;-44
2022/03/22 03:34:01;;;;;;;;;;;;;;;;;;2089491;28;20015;-44
2022/03/22 03:35:02;;;;;;;;;;;;;;;;;;2089429;28;20051;-44
2022/03/22 03:36:03;;;;;;;;;;;;;;;;;;2095183;28;20038;-44
2022/03/22 03:37:04;;;;;;;;;;;;;;;;;;2096668;28;20405;-44
2022/03/22 03:38:05;;;;;;;;;;;;;;;;;;2096375;28;20015;-43
2022/03/22 03:39:07;;;;;;;;;;;;;;;;;;2096202;28;19925;-49
2022/03/22 03:40:08;;;;;;;;;;;;;;;;;;2091542;28;20019;-48
2022/03/22 03:42:29;;;;;;;;;;;;;;;;;;2097809;28;19959;-48
2022/03/22 03:43:30;;;;;;;;;;;;;;;;;;2097977;28;20415;-47
2022/03/22 03:47:11;;;;;;;;;;;;;;;;;;2097565;28;20058;-44
2022/03/22 03:48:12;;;;;;;;;;;;;;;;;;2097886;28;19936;-49
2022/03/22 03:49:14;;;;;;;;;;;;;;;;;;2097686;28;20340;-49
2022/03/22 03:50:15;;;;;;;;;;;;;;;;;;2097582;28;19928;-48
2022/03/22 03:51:16;;;;;;;;;;;;;;;;;;2097406;28;20011;-44
2022/03/22 03:52:18;;;;;;;;;;;;;;;;;;2097707;28;19931;-44
2022/03/22 03:53:19;;;;;;;;;;;;;;;;;;2097765;28;19924;-44
2022/03/22 03:54:20;;;;;;;;;;;;;;;;;;2097724;28;19968;-44
2022/03/22 03:55:21;;;;;;;;;;;;;;;;;;2096793;28;20448;-44
2022/03/22 03:56:23;;;;;;;;;;;;;;;;;;2097693;28;19982;-44
2022/03/22 03:57:24;;;;;;;;;;;;;;;;;;2094404;28;20019;-44
2022/03/22 03:58:25;;;;;;;;;;;;;;;;;;2094411;28;20332;-44
2022/03/22 03:59:26;;;;;;;;;;;;;;;;;;2097938;28;20008;-48
2022/03/22 04:00:27;;;;;;;;;;;;;;;;;;2097855;28;20309;-44
2022/03/22 04:02:48;;;;;;;;;;;;;;;;;;2098204;28;19932;-44
2022/03/22 04:03:50;;;;;;;;;;;;;;;;;;2098516;28;20430;-48
2022/03/22 04:04:52;;;;;;;;;;;;;;;;;;2099073;28;20050;-48
2022/03/22 04:05:53;;;;;;;;;;;;;;;;;;2098793;28;20007;-48
2022/03/22 04:06:54;;;;;;;;;;;;;;;;;;2098835;28;19930;-44
2022/03/22 04:07:55;;;;;;;;;;;;;;;;;;2099139;28;19964;-44
2022/03/22 04:08:56;;;;;;;;;;;;;;;;;;2098614;28;19924;-44
2022/03/22 04:09:58;;;;;;;;;;;;;;;;;;2099031;28;20060;-44
2022/03/22 04:10:58;;;;;;;;;;;;;;;;;;2099012;28;19929;-44
2022/03/22 04:12:00;;;;;;;;;;;;;;;;;;2098950;28;19924;-43
2022/03/22 04:13:01;;;;;;;;;;;;;;;;;;2098977;28;20463;-44
2022/03/22 04:14:02;;;;;;;;;;;;;;;;;;2098894;28;19992;-44
2022/03/22 04:15:03;;;;;;;;;;;;;;;;;;2099033;28;20050;-44
2022/03/22 04:16:04;;;;;;;;;;;;;;;;;;2099135;28;20007;-48
2022/03/22 04:17:07;;;;;;;;;;;;;;;;;;2099068;28;20330;-44
2022/03/22 04:18:09;;;;;;;;;;;;;;;;;;2097069;28;19932;-44
2022/03/22 04:19:10;;;;;;;;;;;;;;;;;;2099238;28;20348;-44
2022/03/22 04:20:11;;;;;;;;;;;;;;;;;;2099117;28;20003;-50
2022/03/22 04:21:12;;;;;;;;;;;;;;;;;;2099093;28;20015;-44
2022/03/22 04:22:14;;;;;;;;;;;;;;;;;;2099044;28;20502;-44
2022/03/22 04:23:15;;;;;;;;;;;;;;;;;;2098825;28;20050;-44
2022/03/22 04:24:16;;;;;;;;;;;;;;;;;;2099106;28;19924;-44
2022/03/22 04:26:37;;;;;;;;;;;;;;;;;;2098894;28;19946;-43
2022/03/22 04:32:56;;;;;;;;;;;;;;;;;;2097134;28;19932;-44
2022/03/22 04:33:57;;;;;;;;;;;;;;;;;;2099162;28;19931;-44
2022/03/22 04:34:58;;;;;;;;;;;;;;;;;;2098902;28;19924;-44
2022/03/22 04:35:59;;;;;;;;;;;;;;;;;;2098895;28;19971;-45
2022/03/22 04:37:01;;;;;;;;;;;;;;;;;;2091713;28;20039;-44
2022/03/22 04:38:02;;;;;;;;;;;;;;;;;;2090869;28;19933;-48
2022/03/22 04:39:03;;;;;;;;;;;;;;;;;;2090478;28;19924;-47
2022/03/22 04:40:04;;;;;;;;;;;;;;;;;;2090550;28;20373;-48
2022/03/22 04:41:05;;;;;;;;;;;;;;;;;;2090614;28;19932;-48
2022/03/22 04:42:06;;;;;;;;;;;;;;;;;;2090678;28;19972;-48
2022/03/22 04:43:08;;;;;;;;;;;;;;;;;;2090483;28;20385;-48
2022/03/22 04:44:09;;;;;;;;;;;;;;;;;;2090718;28;20012;-45
2022/03/22 04:45:10;;;;;;;;;;;;;;;;;;2090456;28;20015;-44
2022/03/22 04:46:11;;;;;;;;;;;;;;;;;;2094584;28;19924;-44
2022/03/22 04:47:15;;;;;;;;;;;;;;;;;;2098715;28;19968;-44
2022/03/22 04:48:16;;;;;;;;;;;;;;;;;;2098687;28;19925;-44
2022/03/22 04:49:17;;;;;;;;;;;;;;;;;;2098841;28;20015;-44
2022/03/22 04:50:18;;;;;;;;;;;;;;;;;;2098715;28;20011;-44
2022/03/22 04:56:46;;;;;;;;;;;;;;;;;;2098455;28;20447;-47
2022/03/22 04:57:47;;;;;;;;;;;;;;;;;;2099152;28;19932;-50
2022/03/22 04:58:51;;;;;;;;;;;;;;;;;;2098300;28;19940;-48
2022/03/22 04:59:52;;;;;;;;;;;;;;;;;;2098828;28;20129;-44
2022/03/22 05:00:54;;;;;;;;;;;;;;;;;;2098529;28;19978;-44
2022/03/22 05:01:55;;;;;;;;;;;;;;;;;;2098688;28;19969;-44
2022/03/22 05:02:56;;;;;;;;;;;;;;;;;;2098551;28;19932;-45
2022/03/22 05:03:57;;;;;;;;;;;;;;;;;;2096570;28;19925;-47
2022/03/22 05:05:00;;;;;;;;;;;;;;;;;;2093453;28;19925;-48
2022/03/22 05:07:20;;;;;;;;;;;;;;;;;;2098635;28;20023;-49
2022/03/22 05:08:21;;;;;;;;;;;;;;;;;;2098638;28;19954;-47
2022/03/22 05:09:23;;;;;;;;;;;;;;;;;;2098833;28;19957;-44
2022/03/22 05:10:24;;;;;;;;;;;;;;;;;;2091533;28;19986;-44
2022/03/22 05:11:25;;;;;;;;;;;;;;;;;;2090355;28;19950;-44
2022/03/22 05:12:26;;;;;;;;;;;;;;;;;;2096375;28;19925;-44
2022/03/22 05:13:27;;;;;;;;;;;;;;;;;;2098215;28;19967;-44
2022/03/22 05:14:29;;;;;;;;;;;;;;;;;;2098646;28;19924;-45
2022/03/22 05:15:31;;;;;;;;;;;;;;;;;;2098562;28;20265;-44
2022/03/22 05:16:34;;;;;;;;;;;;;;;;;;2098413;28;19925;-44
2022/03/22 05:17:35;;;;;;;;;;;;;;;;;;2098606;28;19929;-45
2022/03/22 05:18:36;;;;;;;;;;;;;;;;;;2098586;28;20346;-44
2022/03/22 05:19:38;;;;;;;;;;;;;;;;;;2098494;28;19925;-45
2022/03/22 05:20:39;;;;;;;;;;;;;;;;;;2099000;28;20015;-48
2022/03/22 05:21:41;;;;;;;;;;;;;;;;;;2098447;28;19924;-47
2022/03/22 05:22:42;;;;;;;;;;;;;;;;;;2098425;28;19998;-48
2022/03/22 05:23:44;;;;;;;;;;;;;;;;;;2098485;28;20323;-47
2022/03/22 05:24:46;;;;;;;;;;;;;;;;;;2099177;28;20043;-49
2022/03/22 05:25:47;;;;;;;;;;;;;;;;;;2098473;28;19924;-48
2022/03/22 05:26:48;;;;;;;;;;;;;;;;;;2098386;28;19924;-48
2022/03/22 05:27:49;;;;;;;;;;;;;;;;;;2098634;28;20007;-47
2022/03/22 05:28:50;;;;;;;;;;;;;;;;;;2098645;28;20058;-48
2022/03/22 05:29:51;;;;;;;;;;;;;;;;;;2098844;28;20001;-49
2022/03/22 05:30:53;;;;;;;;;;;;;;;;;;2098395;28;19980;-48
2022/03/22 05:31:54;;;;;;;;;;;;;;;;;;2098344;28;20475;-50
2022/03/22 05:32:55;;;;;;;;;;;;;;;;;;2096627;28;19932;-48
2022/03/22 05:33:56;;;;;;;;;;;;;;;;;;2093948;28;20360;-48
2022/03/22 05:34:58;;;;;;;;;;;;;;;;;;2098491;28;19924;-48
2022/03/22 05:35:59;;;;;;;;;;;;;;;;;;2090589;28;20012;-47
2022/03/22 05:37:00;;;;;;;;;;;;;;;;;;2089993;28;19947;-49
2022/03/22 05:38:01;;;;;;;;;;;;;;;;;;2093281;28;20358;-48
2022/03/22 05:39:02;;;;;;;;;;;;;;;;;;2098449;28;19928;-52
2022/03/22 05:40:03;;;;;;;;;;;;;;;;;;2094300;28;20022;-47
2022/03/22 05:41:06;;;;;;;;;;;;;;;;;;2090140;28;19932;-45
2022/03/22 05:42:07;;;;;;;;;;;;;;;;;;2098301;28;20361;-45
2022/03/22 05:43:08;;;;;;;;;;;;;;;;;;2098677;28;19974;-47
2022/03/22 05:44:12;;;;;;;;;;;;;;;;;;2098335;28;19924;-45
2022/03/22 05:45:15;;;;;;;;;;;;;;;;;;2098245;28;20015;-45
2022/03/22 05:46:16;;;;;;;;;;;;;;;;;;2098379;28;20016;-48
2022/03/22 05:47:18;;;;;;;;;;;;;;;;;;2098536;28;19932;-47
2022/03/22 05:48:19;;;;;;;;;;;;;;;;;;2098589;28;20089;-44
2022/03/22 05:49:20;;;;;;;;;;;;;;;;;;2098531;28;19956;-44
2022/03/22 05:50:21;;;;;;;;;;;;;;;;;;2098536;28;19928;-44
2022/03/22 05:51:23;;;;;;;;;;;;;;;;;;2098195;28;19929;-45
2022/03/22 05:52:25;;;;;;;;;;;;;;;;;;2098259;28;19928;-44
2022/03/22 05:53:25;;;;;;;;;;;;;;;;;;2098489;28;20007;-48
2022/03/22 05:54:27;;;;;;;;;;;;;;;;;;2098446;28;20385;-44
2022/03/22 05:55:28;;;;;;;;;;;;;;;;;;2098236;28;20027;-45
2022/03/22 05:56:29;;;;;;;;;;;;;;;;;;2098406;28;19939;-48
2022/03/22 05:57:30;;;;;;;;;;;;;;;;;;2098091;28;20394;-51
2022/03/22 05:58:32;;;;;;;;;;;;;;;;;;2098387;28;19925;-50
2022/03/22 05:59:33;;;;;;;;;;;;;;;;;;2098079;28;19974;-49
2022/03/22 06:00:34;;;;;;;;;;;;;;;;;;2097882;28;20301;-47
2022/03/22 06:01:35;;;;;;;;;;;;;;;;;;2098278;28;19970;-52
2022/03/22 06:02:37;;;;;;;;;;;;;;;;;;2098161;28;19978;-48
2022/03/22 06:03:38;;;;;;;;;;;;;;;;;;2095581;28;19928;-45
2022/03/22 06:04:39;;;;;;;;;;;;;;;;;;2098233;28;19925;-45
2022/03/22 06:05:42;;;;;;;;;;;;;;;;;;2097950;28;20069;-44
2022/03/22 06:06:43;;;;;;;;;;;;;;;;;;2097850;28;19924;-44
2022/03/22 06:07:44;;;;;;;;;;;;;;;;;;2097014;28;19932;-48
2022/03/22 06:08:45;;;;;;;;;;;;;;;;;;2089887;28;19931;-50
2022/03/22 06:09:47;;;;;;;;;;;;;;;;;;2091327;28;20015;-48
2022/03/22 06:10:49;;;;;;;;;;;;;;;;;;2092460;28;20408;-48
2022/03/22 06:11:50;;;;;;;;;;;;;;;;;;2097706;28;19924;-49
2022/03/22 06:12:51;;;;;;;;;;;;;;;;;;2098177;28;19932;-48
2022/03/22 06:13:53;;;;;;;;;;;;;;;;;;2096501;28;20396;-48
2022/03/22 06:15:14;;;;;;;;;;;;;;;;;;2093993;28;20004;-45
2022/03/22 06:16:16;;;;;;;;;;;;;;;;;;2098486;28;19931;-48
2022/03/22 06:17:17;;;;;;;;;;;;;;;;;;2098146;28;19924;-44
2022/03/22 06:18:18;;;;;;;;;;;;;;;;;;2098305;28;19994;-44
2022/03/22 06:19:19;;;;;;;;;;;;;;;;;;2098421;28;20357;-49
2022/03/22 06:20:20;;;;;;;;;;;;;;;;;;2098196;28;19925;-47
2022/03/22 06:21:21;;;;;;;;;;;;;;;;;;2098095;28;19925;-48
2022/03/22 06:22:23;;;;;;;;;;;;;;;;;;2098132;28;19928;-47
2022/03/22 06:23:24;;;;;;;;;;;;;;;;;;2098124;28;19932;-47
2022/03/22 06:24:26;;;;;;;;;;;;;;;;;;2098175;28;19924;-48
2022/03/22 06:25:27;;;;;;;;;;;;;;;;;;2097209;28;19960;-49
2022/03/22 06:26:28;;;;;;;;;;;;;;;;;;2098016;28;19928;-49
2022/03/22 06:27:29;;;;;;;;;;;;;;;;;;2098125;28;19925;-48
2022/03/22 06:28:32;;;;;;;;;;;;;;;;;;2098170;28;20242;-48
2022/03/22 06:29:33;;;;;;;;;;;;;;;;;;2098265;28;19976;-46
2022/03/22 06:30:34;;;;;;;;;;;;;;;;;;2098101;28;19925;-44
2022/03/22 06:31:35;;;;;;;;;;;;;;;;;;2097826;28;19928;-45
2022/03/22 06:32:36;;;;;;;;;;;;;;;;;;2093927;28;19924;-44
2022/03/22 06:33:44;;;;;;;;;;;;;;;;;;2089864;28;20290;-44
2022/03/22 06:34:47;;;;;;;;;;;;;;;;;;2089872;28;20019;-48
2022/03/22 06:35:48;;;;;;;;;;;;;;;;;;2089749;28;20037;-48
2022/03/22 06:36:49;;;;;;;;;;;;;;;;;;2089951;28;20007;-44
2022/03/22 06:37:50;;;;;;;;;;;;;;;;;;2089655;28;19973;-44
2022/03/22 06:38:51;;;;;;;;;;;;;;;;;;2089891;28;19954;-45
2022/03/22 06:39:53;;;;;;;;;;;;;;;;;;2091340;28;20350;-44
2022/03/22 06:40:54;;;;;;;;;;;;;;;;;;2096726;28;20011;-44
2022/03/22 06:41:55;;;;;;;;;;;;;;;;;;2091299;28;19975;-45
2022/03/22 06:42:56;;;;;;;;;;;;;;;;;;2089584;28;19932;-44
2022/03/22 06:43:57;;;;;;;;;;;;;;;;;;2095631;28;19972;-44
2022/03/22 06:44:58;;;;;;;;;;;;;;;;;;2096091;28;20294;-44
2022/03/22 06:46:00;;;;;;;;;;;;;;;;;;2095635;28;20126;-44
2022/03/22 06:47:01;;;;;;;;;;;;;;;;;;2097221;28;19940;-45
2022/03/22 06:48:02;;;;;;;;;;;;;;;;;;2097342;28;20011;-44
2022/03/22 06:49:03;;;;;;;;;;;;;;;;;;2091908;28;19936;-50
2022/03/22 06:50:06;;;;;;;;;;;;;;;;;;2096983;28;19924;-49
2022/03/22 06:51:07;;;;;;;;;;;;;;;;;;2091260;28;19925;-43
2022/03/22 06:52:08;;;;;;;;;;;;;;;;;;2095539;28;19936;-44
2022/03/22 06:53:10;;;;;;;;;;;;;;;;;;2091626;28;19928;-44
2022/03/22 06:54:12;;;;;;;;;;;;;;;;;;2089525;28;19945;-42
2022/03/22 06:55:13;;;;;;;;;;;;;;;;;;2089469;28;20066;-44
2022/03/22 06:56:14;;;;;;;;;;;;;;;;;;2094123;28;19929;-44
2022/03/22 06:57:15;;;;;;;;;;;;;;;;;;2097958;28;20372;-44
2022/03/22 06:58:21;;;;;;;;;;;;;;;;;;2097694;28;20263;-42
2022/03/22 06:59:22;;;;;;;;;;;;;;;;;;2095708;28;19956;-44
2022/03/22 07:00:23;;;;;;;;;;;;;;;;;;2098027;28;19924;-45
2022/03/22 07:01:24;;;;;;;;;;;;;;;;;;2092769;28;20358;-44
2022/03/22 07:02:25;;;;;;;;;;;;;;;;;;2096898;28;19928;-44
2022/03/22 07:03:27;;;;;;;;;;;;;;;;;;2097190;28;19931;-44
2022/03/22 07:04:28;;;;;;;;;;;;;;;;;;2098135;28;19924;-49
2022/03/22 07:05:30;;;;;;;;;;;;;;;;;;2100491;28;19931;-49
2022/03/22 07:06:31;;;;;;;;;;;;;;;;;;2097576;28;20252;-49
2022/03/22 07:07:32;;;;;;;;;;;;;;;;;;2097843;28;19994;-43
2022/03/22 07:08:33;;;;;;;;;;;;;;;;;;2097298;28;20035;-44
2022/03/22 07:09:34;;;;;;;;;;;;;;;;;;2097633;28;19975;-50
2022/03/22 07:10:36;;;;;;;;;;;;;;;;;;2098132;28;20374;-51
2022/03/22 07:11:52;;;;;;;;;;;;;;;;;;2097661;28;19975;-49
2022/03/22 07:12:54;;;;;;;;;;;;;;;;;;2095808;28;19972;-49
2022/03/22 07:13:55;;;;;;;;;;;;;;;;;;2097810;28;20285;-44
2022/03/22 07:14:56;;;;;;;;;;;;;;;;;;2095058;28;20023;-47
2022/03/22 07:15:58;;;;;;;;;;;;;;;;;;2094675;28;20011;-47
2022/03/22 07:16:59;;;;;;;;;;;;;;;;;;2089496;28;19932;-47
2022/03/22 07:18:02;;;;;;;;;;;;;;;;;;2093963;28;20428;-50
2022/03/22 07:19:03;;;;;;;;;;;;;;;;;;2097945;28;19976;-47
2022/03/22 07:20:04;;;;;;;;;;;;;;;;;;2097672;28;20420;-47
2022/03/22 07:21:06;;;;;;;;;;;;;;;;;;2096946;28;19982;-44
2022/03/22 07:22:07;;;;;;;;;;;;;;;;;;2096022;28;19925;-42
2022/03/22 07:23:08;;;;;;;;;;;;;;;;;;2096786;28;20353;-43
2022/03/22 07:24:09;;;;;;;;;;;;;;;;;;2097358;28;20536;-42